createdAt,value
2018-11-02T00:00:52.490Z,9.60
2018-11-02T00:03:20.677Z,8.70
2018-11-02T00:05:48.867Z,8.70
2018-11-02T00:08:17.063Z,9.10
2018-11-02T00:10:45.054Z,8.80
2018-11-02T00:13:13.138Z,10.10
2018-11-02T00:15:41.276Z,9.00
2018-11-02T00:18:09.393Z,9.63
2018-11-02T00:20:37.629Z,9.93
2018-11-02T00:23:05.716Z,7.70
2018-11-02T00:25:33.954Z,10.60
2018-11-02T00:28:02.262Z,9.57
2018-11-02T00:30:30.471Z,10.77
2018-11-02T00:32:58.591Z,10.57
2018-11-02T00:35:26.770Z,11.57
2018-11-02T00:37:54.991Z,9.90
2018-11-02T00:40:23.120Z,9.57
2018-11-02T00:42:51.182Z,11.80
2018-11-02T00:45:19.323Z,10.80
2018-11-02T00:47:47.413Z,10.23
2018-11-02T00:50:15.566Z,9.50
2018-11-02T00:52:43.736Z,9.70
2018-11-02T00:55:12.008Z,10.17
2018-11-02T00:57:40.160Z,9.97
2018-11-02T01:00:09.381Z,10.27
2018-11-02T01:02:37.725Z,9.93
2018-11-02T01:05:06.202Z,9.47
2018-11-02T01:07:34.439Z,9.77
2018-11-02T01:10:02.566Z,9.97
2018-11-02T01:12:30.585Z,9.97
2018-11-02T01:14:58.711Z,10.90
2018-11-02T01:17:27.018Z,10.67
2018-11-02T01:19:55.048Z,10.80
2018-11-02T01:22:24.006Z,10.60
2018-11-02T01:24:52.050Z,10.30
2018-11-02T01:27:20.116Z,11.50
2018-11-02T01:29:48.227Z,9.20
2018-11-02T01:32:16.290Z,11.43
2018-11-02T01:34:44.330Z,9.93
2018-11-02T01:37:13.541Z,10.93
2018-11-02T01:39:41.700Z,9.80
2018-11-02T01:42:09.864Z,10.90
2018-11-02T01:44:38.031Z,9.63
2018-11-02T01:47:06.335Z,10.17
2018-11-02T01:49:34.578Z,9.10
2018-11-02T01:52:02.869Z,9.97
2018-11-02T01:54:30.950Z,10.67
2018-11-02T01:56:58.980Z,9.60
2018-11-02T01:59:27.260Z,11.20
2018-11-02T02:01:55.360Z,10.03
2018-11-02T02:04:23.324Z,10.40
2018-11-02T02:06:51.396Z,10.40
2018-11-02T02:09:19.415Z,11.00
2018-11-02T02:11:48.287Z,9.67
2018-11-02T02:14:16.293Z,10.17
2018-11-02T02:16:44.318Z,8.97
2018-11-02T02:19:12.504Z,11.23
2018-11-02T02:21:40.697Z,9.53
2018-11-02T02:24:08.810Z,9.40
2018-11-02T02:26:36.953Z,9.73
2018-11-02T02:29:05.392Z,11.03
2018-11-02T02:31:33.582Z,11.53
2018-11-02T02:34:01.967Z,9.43
2018-11-02T02:36:30.025Z,10.87
2018-11-02T02:38:58.204Z,9.67
2018-11-02T02:41:26.284Z,11.10
2018-11-02T02:43:54.324Z,10.33
2018-11-02T02:46:22.493Z,10.40
2018-11-02T02:48:50.508Z,8.13
2018-11-02T02:51:18.588Z,10.10
2018-11-02T02:53:46.574Z,8.80
2018-11-02T02:56:14.717Z,9.90
2018-11-02T02:58:42.745Z,9.87
2018-11-02T03:01:10.867Z,9.93
2018-11-02T03:03:38.962Z,10.63
2018-11-02T03:06:07.155Z,10.03
2018-11-02T03:08:35.306Z,10.10
2018-11-02T03:11:03.873Z,10.47
2018-11-02T03:13:31.821Z,9.57
2018-11-02T03:15:59.825Z,9.97
2018-11-02T03:18:27.949Z,9.23
2018-11-02T03:20:56.019Z,10.00
2018-11-02T03:23:24.062Z,9.60
2018-11-02T03:25:52.140Z,10.27
2018-11-02T03:28:20.145Z,12.13
2018-11-02T03:30:48.158Z,10.50
2018-11-02T03:33:16.171Z,10.37
2018-11-02T03:35:44.492Z,11.20
2018-11-02T03:38:12.534Z,10.33
2018-11-02T03:40:40.586Z,9.10
2018-11-02T03:43:08.646Z,12.67
2018-11-02T03:45:36.716Z,9.97
2018-11-02T03:48:11.297Z,10.30
2018-11-02T03:50:39.324Z,9.83
2018-11-02T03:53:07.492Z,11.17
2018-11-02T03:55:35.785Z,8.73
2018-11-02T03:58:03.881Z,11.30
2018-11-02T04:00:33.878Z,10.30
2018-11-02T04:03:01.967Z,10.70
2018-11-02T04:05:30.089Z,9.80
2018-11-02T04:07:58.161Z,10.03
2018-11-02T04:10:26.349Z,9.33
2018-11-02T04:12:54.433Z,9.00
2018-11-02T04:15:22.706Z,10.13
2018-11-02T04:17:50.706Z,8.83
2018-11-02T04:20:18.754Z,10.17
2018-11-02T04:22:46.755Z,9.53
2018-11-02T04:25:14.782Z,9.40
2018-11-02T04:27:42.911Z,8.73
2018-11-02T04:30:11.177Z,8.87
2018-11-02T04:32:39.154Z,9.30
2018-11-02T04:35:07.514Z,8.47
2018-11-02T04:37:35.675Z,8.87
2018-11-02T04:40:04.102Z,9.20
2018-11-02T04:42:32.227Z,9.20
2018-11-02T04:45:00.224Z,10.27
2018-11-02T04:47:28.297Z,9.07
2018-11-02T04:49:56.410Z,10.40
2018-11-02T04:52:24.615Z,9.40
2018-11-02T04:54:52.670Z,8.70
2018-11-02T04:57:20.796Z,9.50
2018-11-02T04:59:48.879Z,9.93
2018-11-02T05:02:16.926Z,9.57
2018-11-02T05:04:44.970Z,9.20
2018-11-02T05:07:13.050Z,8.20
2018-11-02T05:09:41.191Z,8.73
2018-11-02T05:12:09.388Z,10.10
2018-11-02T05:14:37.807Z,8.13
2018-11-02T05:17:06.121Z,8.10
2018-11-02T05:19:34.237Z,8.80
2018-11-02T05:22:03.266Z,9.10
2018-11-02T05:24:31.423Z,9.73
2018-11-02T05:26:59.536Z,10.13
2018-11-02T05:29:27.624Z,10.30
2018-11-02T05:31:55.820Z,9.63
2018-11-02T05:34:24.086Z,10.13
2018-11-02T05:36:53.089Z,10.03
2018-11-02T05:39:21.554Z,10.70
2018-11-02T05:41:49.756Z,10.20
2018-11-02T05:44:17.915Z,9.90
2018-11-02T05:46:46.005Z,10.50
2018-11-02T05:49:14.302Z,10.80
2018-11-02T05:51:42.652Z,9.97
2018-11-02T05:54:10.732Z,10.40
2018-11-02T05:56:39.333Z,10.90
2018-11-02T05:59:07.482Z,10.33
2018-11-02T06:01:35.673Z,10.03
2018-11-02T06:04:03.810Z,10.73
2018-11-02T06:06:32.273Z,12.00
2018-11-02T06:09:00.444Z,10.70
2018-11-02T06:11:28.889Z,11.43
2018-11-02T06:13:57.085Z,11.63
2018-11-02T06:16:25.239Z,11.50
2018-11-02T06:18:53.494Z,12.40
2018-11-02T06:21:21.693Z,10.90
2018-11-02T06:23:49.846Z,11.00
2018-11-02T06:26:17.847Z,10.90
2018-11-02T06:28:46.067Z,10.87
2018-11-02T06:31:14.570Z,11.87
2018-11-02T06:33:43.785Z,10.27
2018-11-02T06:36:16.886Z,11.60
2018-11-02T06:38:45.094Z,11.50
2018-11-02T06:41:13.549Z,11.70
2018-11-02T06:43:41.983Z,11.03
2018-11-02T06:46:10.498Z,13.40
2018-11-02T06:48:38.766Z,13.43
2018-11-02T06:51:07.668Z,11.07
2018-11-02T06:53:37.133Z,11.70
2018-11-02T06:56:06.260Z,11.33
2018-11-02T06:58:34.727Z,12.10
2018-11-02T07:01:04.421Z,10.20
2018-11-02T07:03:33.940Z,10.53
2018-11-02T07:06:03.355Z,9.47
2018-11-02T07:08:32.751Z,10.03
2018-11-02T07:11:01.109Z,9.70
2018-11-02T07:13:29.407Z,12.10
2018-11-02T07:15:57.905Z,10.23
2018-11-02T07:18:26.165Z,10.43
2018-11-02T07:20:54.613Z,10.63
2018-11-02T07:26:02.540Z,10.50
2018-11-02T07:28:32.859Z,10.30
2018-11-02T07:31:01.676Z,10.40
2018-11-02T07:33:31.976Z,10.20
2018-11-02T07:36:00.630Z,10.33
2018-11-02T07:38:29.127Z,11.13
2018-11-02T07:40:59.633Z,10.43
2018-11-02T07:43:33.710Z,12.13
2018-11-02T07:46:02.217Z,10.80
2018-11-02T07:48:31.279Z,12.07
2018-11-02T07:51:00.419Z,10.83
2018-11-02T07:53:28.749Z,10.70
2018-11-02T07:56:01.008Z,11.27
2018-11-02T07:58:33.812Z,10.77
2018-11-02T08:03:38.190Z,12.20
2018-11-02T08:06:07.262Z,10.17
2018-11-02T08:08:36.502Z,29.00
2018-11-02T08:11:10.317Z,12.30
2018-11-02T08:16:15.641Z,11.20
2018-11-02T08:18:48.723Z,11.87
2018-11-02T08:21:18.097Z,11.30
2018-11-02T08:29:10.471Z,11.33
2018-11-02T08:34:22.366Z,11.87
2018-11-02T08:42:22.495Z,11.43
2018-11-02T08:44:59.946Z,11.07
2018-11-02T08:47:38.797Z,10.23
2018-11-02T08:53:19.619Z,10.03
2018-11-02T08:55:48.457Z,11.50
2018-11-02T08:58:29.566Z,9.83
2018-11-02T09:01:06.028Z,11.63
2018-11-02T09:03:43.495Z,10.97
2018-11-02T09:06:18.214Z,9.50
2018-11-02T09:08:46.696Z,11.47
2018-11-02T09:11:15.165Z,13.07
2018-11-02T09:13:44.304Z,10.77
2018-11-02T09:16:13.082Z,11.10
2018-11-02T09:18:53.896Z,9.87
2018-11-02T09:24:29.551Z,11.40
2018-11-02T09:27:06.531Z,11.07
2018-11-02T09:32:17.881Z,11.07
2018-11-02T09:34:51.485Z,11.13
2018-11-02T09:37:20.241Z,11.10
2018-11-02T09:39:51.237Z,11.07
2018-11-02T09:52:49.747Z,11.30
2018-11-02T10:08:46.138Z,14.30
2018-11-02T10:30:14.470Z,13.50
2018-11-02T10:32:52.472Z,14.17
2018-11-02T10:51:53.435Z,15.60
2018-11-02T10:59:48.643Z,15.13
2018-11-02T11:10:17.478Z,13.60
2018-11-02T11:12:49.708Z,15.77
2018-11-02T11:15:26.866Z,14.77
2018-11-02T11:17:56.264Z,14.90
2018-11-02T11:53:42.323Z,16.23
2018-11-02T11:56:16.193Z,16.87
2018-11-02T11:58:50.061Z,18.10
2018-11-02T12:01:43.752Z,15.53
2018-11-02T12:23:32.739Z,16.37
2018-11-02T12:31:45.202Z,14.23
2018-11-02T12:42:29.444Z,15.17
2018-11-02T12:45:08.469Z,15.40
2018-11-02T12:50:50.250Z,13.30
2018-11-02T12:58:56.129Z,14.33
2018-11-02T13:06:49.671Z,11.53
2018-11-02T13:17:27.696Z,12.43
2018-11-02T13:25:28.003Z,10.67
2018-11-02T13:30:43.607Z,10.10
2018-11-02T13:35:59.480Z,11.00
2018-11-02T13:38:34.162Z,11.27
2018-11-02T13:41:12.924Z,10.10
2018-11-02T13:43:44.765Z,10.03
2018-11-02T13:46:13.680Z,10.80
2018-11-02T13:51:36.802Z,9.30
2018-11-02T13:54:10.531Z,6.53
2018-11-02T13:56:40.063Z,7.10
2018-11-02T14:10:06.059Z,7.87
2018-11-02T14:15:27.204Z,6.93
2018-11-02T14:18:01.805Z,6.37
2018-11-02T14:34:11.111Z,7.23
2018-11-02T14:57:57.688Z,15.27
2018-11-02T15:00:35.366Z,13.77
2018-11-02T15:14:05.320Z,13.07
2018-11-02T15:22:25.126Z,11.10
2018-11-02T15:32:59.635Z,9.50
2018-11-02T15:35:40.330Z,8.40
2018-11-02T15:38:12.542Z,8.53
2018-11-02T15:40:53.356Z,9.03
2018-11-02T15:48:40.788Z,8.83
2018-11-02T16:13:02.720Z,14.93
2018-11-02T16:15:31.592Z,18.53
2018-11-02T16:18:14.350Z,16.93
2018-11-02T16:23:26.791Z,16.60
2018-11-02T16:25:55.882Z,17.57
2018-11-02T16:31:00.707Z,16.40
2018-11-02T16:39:04.562Z,18.57
2018-11-02T16:41:41.610Z,18.47
2018-11-02T16:47:02.565Z,20.10
2018-11-02T16:58:05.951Z,21.40
2018-11-02T17:00:46.697Z,20.20
2018-11-02T17:06:01.980Z,21.83
2018-11-02T17:11:27.625Z,25.93
2018-11-02T17:16:41.381Z,24.70
2018-11-02T17:19:20.793Z,24.97
2018-11-02T17:21:53.022Z,24.27
2018-11-02T17:36:36.591Z,26.10
2018-11-02T17:39:08.177Z,26.00
2018-11-02T17:44:21.827Z,26.70
2018-11-02T17:49:27.303Z,24.20
2018-11-02T17:52:02.135Z,23.27
2018-11-02T17:54:34.741Z,23.00
2018-11-02T18:05:18.266Z,23.60
2018-11-02T18:07:47.658Z,23.27
2018-11-02T18:10:22.654Z,22.50
2018-11-02T18:12:51.877Z,23.70
2018-11-02T18:15:25.736Z,23.47
2018-11-02T18:23:25.028Z,20.53
2018-11-02T18:26:02.959Z,22.20
2018-11-02T18:28:39.655Z,21.93
2018-11-02T18:31:13.920Z,18.57
2018-11-02T18:33:44.205Z,22.07
2018-11-02T18:39:00.589Z,24.20
2018-11-02T18:46:58.638Z,20.73
2018-11-02T18:55:13.575Z,23.50
2018-11-02T18:57:50.959Z,21.93
2018-11-02T19:05:51.379Z,20.77
2018-11-02T19:08:21.460Z,20.83
2018-11-02T19:10:55.310Z,21.80
2018-11-02T19:15:58.909Z,21.73
2018-11-02T19:18:27.883Z,24.40
2018-11-02T19:20:57.738Z,26.47
2018-11-02T19:23:26.780Z,24.53
2018-11-02T19:31:14.459Z,29.33
2018-11-02T19:38:58.193Z,29.47
2018-11-02T19:41:28.216Z,31.67
2018-11-02T19:43:57.439Z,29.37
2018-11-02T19:49:17.719Z,32.27
2018-11-02T19:54:27.922Z,32.53
2018-11-02T19:57:05.555Z,32.93
2018-11-02T19:59:35.396Z,32.73
2018-11-02T20:02:05.781Z,35.73
2018-11-02T20:04:36.488Z,34.07
2018-11-02T20:12:27.177Z,32.63
2018-11-02T20:15:04.555Z,30.63
2018-11-02T20:20:10.605Z,31.93
2018-11-02T20:22:42.286Z,32.67
2018-11-02T20:28:03.699Z,32.27
2018-11-02T20:30:33.259Z,31.73
2018-11-02T20:33:04.290Z,35.17
2018-11-02T20:35:36.582Z,35.53
2018-11-02T20:38:06.259Z,33.10
2018-11-02T20:40:36.862Z,31.93
2018-11-02T20:43:19.779Z,33.00
2018-11-02T20:45:53.456Z,32.90
2018-11-02T20:48:22.585Z,29.73
2018-11-02T20:50:51.485Z,30.70
2018-11-02T20:53:21.719Z,31.60
2018-11-02T20:55:50.098Z,33.40
2018-11-02T20:58:18.412Z,28.80
2018-11-02T21:00:51.378Z,31.40
2018-11-02T21:03:28.143Z,33.27
2018-11-02T21:05:56.628Z,31.27
2018-11-02T21:08:25.333Z,30.40
2018-11-02T21:10:53.791Z,31.40
2018-11-02T21:13:22.414Z,31.87
2018-11-02T21:15:51.804Z,29.10
2018-11-02T21:18:20.721Z,30.37
2018-11-02T21:20:49.122Z,33.87
2018-11-02T21:23:18.227Z,32.07
2018-11-02T21:25:46.661Z,31.40
2018-11-02T21:28:16.171Z,31.10
2018-11-02T21:30:44.755Z,30.27
2018-11-02T21:33:16.935Z,29.60
2018-11-02T21:35:46.129Z,30.47
2018-11-02T21:38:14.489Z,31.03
2018-11-02T21:40:43.379Z,30.90
2018-11-02T21:43:12.969Z,28.17
2018-11-02T21:45:42.769Z,28.20
2018-11-02T21:48:12.822Z,26.17
2018-11-02T21:53:25.930Z,28.97
2018-11-02T21:55:54.555Z,27.77
2018-11-02T21:58:22.754Z,26.87
2018-11-02T22:00:53.300Z,25.33
2018-11-02T22:03:22.275Z,25.07
2018-11-02T22:05:51.369Z,31.50
2018-11-02T22:08:24.381Z,31.17
2018-11-02T22:10:54.495Z,30.90
2018-11-02T22:13:23.649Z,30.20
2018-11-02T22:15:52.201Z,28.43
2018-11-02T22:18:21.419Z,28.13
2018-11-02T22:20:51.052Z,31.20
2018-11-02T22:23:20.074Z,29.60
2018-11-02T22:25:49.614Z,28.20
2018-11-02T22:28:18.942Z,27.90
2018-11-02T22:30:54.660Z,26.17
2018-11-02T22:33:23.334Z,27.03
2018-11-02T22:35:56.110Z,25.10
2018-11-02T22:38:33.527Z,28.20
2018-11-02T22:41:08.488Z,25.73
2018-11-02T22:43:37.817Z,26.60
2018-11-02T22:46:11.544Z,27.17
2018-11-02T22:48:40.951Z,27.47
2018-11-02T22:51:10.321Z,26.00
2018-11-02T22:53:42.703Z,29.27
2018-11-02T22:56:11.779Z,27.73
2018-11-02T22:58:40.463Z,27.30
2018-11-02T23:01:14.486Z,25.80
2018-11-02T23:03:43.399Z,25.53
2018-11-02T23:06:20.054Z,23.60
2018-11-02T23:08:49.391Z,23.93
2018-11-02T23:11:17.738Z,23.60
2018-11-02T23:13:47.027Z,21.50
2018-11-02T23:16:15.616Z,21.07
2018-11-02T23:18:45.041Z,21.50
2018-11-02T23:21:13.535Z,21.83
2018-11-02T23:23:41.879Z,20.33
2018-11-02T23:26:11.057Z,19.70
2018-11-02T23:28:40.891Z,18.70
2018-11-02T23:31:09.670Z,20.40
2018-11-02T23:33:43.255Z,19.97
2018-11-02T23:36:12.565Z,19.83
2018-11-02T23:38:41.492Z,19.67
2018-11-02T23:43:44.025Z,21.20
2018-11-02T23:46:13.222Z,22.20
2018-11-02T23:48:42.732Z,21.10
2018-11-02T23:51:12.032Z,22.20
2018-11-02T23:53:40.250Z,21.33
2018-11-02T23:56:08.677Z,22.67
2018-11-02T23:58:37.018Z,22.00
